createdAt,value
2023-12-08T00:00:44.532Z,33.50
2023-12-08T00:03:11.108Z,21.50
2023-12-08T00:05:37.729Z,25.50
2023-12-08T00:08:05.284Z,24.67
2023-12-08T00:10:31.808Z,23.50
2023-12-08T00:12:59.256Z,25.00
2023-12-08T00:15:26.758Z,25.67
2023-12-08T00:17:54.338Z,25.67
2023-12-08T00:20:20.927Z,21.50
2023-12-08T00:22:47.474Z,24.00
2023-12-08T00:25:14.029Z,24.00
2023-12-08T00:27:41.475Z,20.67
2023-12-08T00:30:09.067Z,20.33
2023-12-08T00:32:36.657Z,22.33
2023-12-08T00:35:03.332Z,23.50
2023-12-08T00:37:30.815Z,20.00
2023-12-08T00:39:58.267Z,22.00
2023-12-08T00:42:25.699Z,20.67
2023-12-08T00:44:53.202Z,22.67
2023-12-08T00:47:20.733Z,20.67
2023-12-08T00:49:47.386Z,20.00
2023-12-08T00:52:13.990Z,21.00
2023-12-08T00:54:41.412Z,22.33
2023-12-08T00:57:07.992Z,26.00
2023-12-08T00:59:34.550Z,19.00
2023-12-08T01:02:01.150Z,20.00
2023-12-08T01:04:28.583Z,20.33
2023-12-08T01:06:56.267Z,23.00
2023-12-08T01:09:23.740Z,22.00
2023-12-08T01:11:50.328Z,23.00
2023-12-08T01:14:17.724Z,17.67
2023-12-08T01:16:44.295Z,18.00
2023-12-08T01:19:11.750Z,18.00
2023-12-08T01:21:39.216Z,20.33
2023-12-08T01:24:06.717Z,21.33
2023-12-08T01:26:34.226Z,22.00
2023-12-08T01:29:00.811Z,20.50
2023-12-08T01:31:27.322Z,19.00
2023-12-08T01:33:54.910Z,20.33
2023-12-08T01:36:39.693Z,14.00
2023-12-08T01:39:09.112Z,18.00
2023-12-08T01:41:36.535Z,20.33
2023-12-08T01:44:04.044Z,21.67
2023-12-08T01:46:30.638Z,13.50
2023-12-08T01:48:58.275Z,21.00
2023-12-08T01:51:25.751Z,19.67
2023-12-08T01:53:52.280Z,20.50
2023-12-08T01:56:18.842Z,13.00
2023-12-08T01:58:45.312Z,20.50
2023-12-08T02:01:11.933Z,21.00
2023-12-08T02:03:39.489Z,19.00
2023-12-08T02:06:07.011Z,20.00
2023-12-08T02:08:34.372Z,14.33
2023-12-08T02:11:00.913Z,20.00
2023-12-08T02:13:28.383Z,17.67
2023-12-08T02:15:56.760Z,16.20
2023-12-08T02:18:24.284Z,21.00
2023-12-08T02:20:51.758Z,18.00
2023-12-08T02:23:18.272Z,15.50
2023-12-08T02:25:44.761Z,18.50
2023-12-08T02:28:12.191Z,16.00
2023-12-08T02:30:38.661Z,16.00
2023-12-08T02:33:06.075Z,18.67
2023-12-08T02:35:32.658Z,16.50
2023-12-08T02:37:59.182Z,15.00
2023-12-08T02:40:27.625Z,17.20
2023-12-08T02:42:55.001Z,17.00
2023-12-08T02:45:21.612Z,20.00
2023-12-08T02:47:48.228Z,17.50
2023-12-08T02:50:14.784Z,20.00
2023-12-08T02:52:41.276Z,17.50
2023-12-08T02:55:08.672Z,18.00
2023-12-08T02:57:36.032Z,17.00
2023-12-08T03:00:02.609Z,15.00
2023-12-08T03:02:29.239Z,14.50
2023-12-08T03:04:55.783Z,14.50
2023-12-08T03:07:23.132Z,16.67
2023-12-08T03:09:49.662Z,20.50
2023-12-08T03:12:16.150Z,19.00
2023-12-08T03:14:42.714Z,19.00
2023-12-08T03:17:10.060Z,16.67
2023-12-08T03:19:37.457Z,18.00
2023-12-08T03:22:04.031Z,13.50
2023-12-08T03:24:32.471Z,15.00
2023-12-08T03:26:59.932Z,16.33
2023-12-08T03:29:27.247Z,18.00
2023-12-08T03:31:55.656Z,15.20
2023-12-08T03:34:24.052Z,15.80
2023-12-08T03:36:51.431Z,16.67
2023-12-08T03:39:18.995Z,17.33
2023-12-08T03:41:46.449Z,17.67
2023-12-08T03:44:13.828Z,17.33
2023-12-08T03:46:41.295Z,18.33
2023-12-08T03:49:08.803Z,19.33
2023-12-08T03:51:36.271Z,19.67
2023-12-08T03:54:03.692Z,21.33
2023-12-08T03:56:31.095Z,19.67
2023-12-08T03:58:58.426Z,17.33
2023-12-08T04:01:26.202Z,23.00
2023-12-08T04:03:53.518Z,16.67
2023-12-08T04:06:20.092Z,12.50
2023-12-08T04:08:46.644Z,18.50
2023-12-08T04:11:13.210Z,20.00
2023-12-08T04:13:40.625Z,20.00
2023-12-08T04:16:07.962Z,16.33
2023-12-08T04:18:35.420Z,17.00
2023-12-08T04:21:02.907Z,17.67
2023-12-08T04:23:29.459Z,15.50
2023-12-08T04:25:58.780Z,18.00
2023-12-08T04:28:25.854Z,16.50
2023-12-08T04:30:52.366Z,17.00
2023-12-08T04:33:19.028Z,20.50
2023-12-08T04:35:46.542Z,16.00
2023-12-08T04:38:13.183Z,17.00
2023-12-08T04:40:40.504Z,18.67
2023-12-08T04:43:09.652Z,17.50
2023-12-08T04:45:39.666Z,18.57
2023-12-08T04:48:07.281Z,22.67
2023-12-08T04:50:34.865Z,15.00
2023-12-08T04:53:02.267Z,21.00
2023-12-08T04:55:29.224Z,22.00
2023-12-08T04:57:55.765Z,17.00
2023-12-08T05:00:24.117Z,14.60
2023-12-08T05:02:50.645Z,21.50
2023-12-08T05:05:18.149Z,17.33
2023-12-08T05:07:45.689Z,23.00
2023-12-08T05:10:12.210Z,16.50
2023-12-08T05:12:39.632Z,21.67
2023-12-08T05:15:07.121Z,22.67
2023-12-08T05:17:34.612Z,18.33
2023-12-08T05:20:02.199Z,20.00
2023-12-08T05:22:30.323Z,18.67
2023-12-08T05:24:56.838Z,17.50
2023-12-08T05:27:24.599Z,23.00
2023-12-08T05:29:52.261Z,19.33
2023-12-08T05:32:18.837Z,18.00
2023-12-08T05:34:45.398Z,18.00
2023-12-08T05:37:14.603Z,18.33
2023-12-08T05:39:41.170Z,17.00
2023-12-08T05:42:08.642Z,20.33
2023-12-08T05:44:35.215Z,14.00
2023-12-08T05:47:03.644Z,18.20
2023-12-08T05:49:31.328Z,17.67
2023-12-08T05:51:57.948Z,14.00
2023-12-08T05:54:24.910Z,16.00
2023-12-08T05:56:51.504Z,19.50
2023-12-08T05:59:18.044Z,15.00
2023-12-08T06:01:46.458Z,15.80
2023-12-08T06:04:13.813Z,18.00
2023-12-08T06:06:41.188Z,42.00
2023-12-08T06:09:09.021Z,31.50
2023-12-08T06:11:36.544Z,29.50
2023-12-08T06:14:04.005Z,24.00
2023-12-08T06:16:31.474Z,46.00
2023-12-08T06:18:58.193Z,37.00
2023-12-08T06:21:26.024Z,31.50
2023-12-08T06:23:52.594Z,26.00
2023-12-08T06:26:19.144Z,24.00
2023-12-08T06:28:46.655Z,19.67
2023-12-08T06:31:13.490Z,26.50
2023-12-08T06:33:41.186Z,47.00
2023-12-08T06:36:07.834Z,26.50
2023-12-08T06:38:34.393Z,33.00
2023-12-08T06:41:01.860Z,25.33
2023-12-08T06:43:28.407Z,22.00
2023-12-08T06:45:54.952Z,49.00
2023-12-08T06:48:21.647Z,41.50
2023-12-08T06:50:48.282Z,33.00
2023-12-08T06:53:16.554Z,33.67
2023-12-08T06:55:44.554Z,42.67
2023-12-08T06:58:12.056Z,56.50
2023-12-08T07:00:39.559Z,41.67
2023-12-08T07:03:07.147Z,35.00
2023-12-08T07:05:34.742Z,41.67
2023-12-08T07:08:02.232Z,44.67
2023-12-08T07:10:28.974Z,38.50
2023-12-08T07:12:55.534Z,29.00
2023-12-08T07:15:22.102Z,32.50
2023-12-08T07:17:49.849Z,53.33
2023-12-08T07:20:16.500Z,46.00
2023-12-08T07:22:43.176Z,38.00
2023-12-08T07:25:10.914Z,36.50
2023-12-08T07:27:37.517Z,32.50
2023-12-08T07:30:04.150Z,30.00
2023-12-08T07:32:31.729Z,29.00
2023-12-08T07:34:58.308Z,29.00
2023-12-08T07:37:25.883Z,24.33
2023-12-08T07:39:53.536Z,27.33
2023-12-08T07:42:22.273Z,21.67
2023-12-08T07:44:49.999Z,22.33
2023-12-08T07:47:17.825Z,25.00
2023-12-08T07:49:45.748Z,20.00
2023-12-08T07:52:12.582Z,23.00
2023-12-08T07:54:40.255Z,24.00
2023-12-08T07:57:07.937Z,18.67
2023-12-08T07:59:35.453Z,22.00
2023-12-08T08:02:03.003Z,25.67
2023-12-08T08:04:29.524Z,20.00
2023-12-08T08:06:57.122Z,21.67
2023-12-08T08:09:23.764Z,25.00
2023-12-08T08:11:50.337Z,23.00
2023-12-08T08:14:16.904Z,27.50
2023-12-08T08:16:44.356Z,21.00
2023-12-08T08:19:11.188Z,23.00
2023-12-08T08:21:37.796Z,26.50
2023-12-08T08:24:05.347Z,21.67
2023-12-08T08:26:32.880Z,20.67
2023-12-08T08:28:59.486Z,22.50
2023-12-08T08:31:27.053Z,20.00
2023-12-08T08:33:53.940Z,52.50
2023-12-08T08:36:21.701Z,40.00
2023-12-08T08:38:48.415Z,34.00
2023-12-08T08:41:16.065Z,39.50
2023-12-08T08:43:42.782Z,49.00
2023-12-08T08:46:09.356Z,46.00
2023-12-08T08:48:36.150Z,37.50
2023-12-08T08:51:03.364Z,34.00
2023-12-08T08:53:29.953Z,28.50
2023-12-08T08:55:58.230Z,58.00
2023-12-08T08:58:25.753Z,47.33
2023-12-08T09:00:53.272Z,38.67
2023-12-08T09:03:20.787Z,38.00
2023-12-08T09:05:47.433Z,31.00
2023-12-08T09:08:14.952Z,45.50
2023-12-08T09:10:42.447Z,45.00
2023-12-08T09:13:09.069Z,40.50
2023-12-08T09:15:35.613Z,33.50
2023-12-08T09:18:02.368Z,35.00
2023-12-08T09:20:28.982Z,30.00
2023-12-08T09:22:55.563Z,31.00
2023-12-08T09:25:23.127Z,27.67
2023-12-08T09:27:50.699Z,43.33
2023-12-08T09:30:18.286Z,46.00
2023-12-08T09:32:45.285Z,41.50
2023-12-08T09:35:12.876Z,32.00
2023-12-08T09:37:39.514Z,32.50
2023-12-08T09:40:06.144Z,34.50
2023-12-08T09:42:32.727Z,30.00
2023-12-08T09:44:59.308Z,29.50
2023-12-08T09:47:26.209Z,29.50
2023-12-08T09:49:53.920Z,27.67
2023-12-08T09:52:20.585Z,28.00
2023-12-08T09:54:47.109Z,25.00
2023-12-08T09:57:13.712Z,28.00
2023-12-08T09:59:41.209Z,25.67
2023-12-08T10:02:07.765Z,27.50
2023-12-08T10:04:35.294Z,29.33
2023-12-08T10:07:01.850Z,29.00
2023-12-08T10:09:28.384Z,26.50
2023-12-08T10:11:55.889Z,23.67
2023-12-08T10:14:23.483Z,28.00
2023-12-08T10:16:50.021Z,21.00
2023-12-08T10:19:16.628Z,18.50
2023-12-08T10:21:43.468Z,21.00
2023-12-08T10:24:11.018Z,24.00
2023-12-08T10:26:37.631Z,22.00
2023-12-08T10:29:05.157Z,23.33
2023-12-08T10:31:32.619Z,20.00
2023-12-08T10:33:59.385Z,29.00
2023-12-08T10:36:26.000Z,20.00
2023-12-08T10:38:53.585Z,23.00
2023-12-08T10:41:21.141Z,25.00
2023-12-08T10:43:47.685Z,25.00
2023-12-08T10:46:14.244Z,25.00
2023-12-08T10:48:41.826Z,23.33
2023-12-08T10:51:08.468Z,28.50
2023-12-08T10:53:34.985Z,25.50
2023-12-08T10:56:02.544Z,25.33
2023-12-08T10:58:30.003Z,22.00
2023-12-08T11:00:57.470Z,21.67
2023-12-08T11:03:25.156Z,28.33
2023-12-08T11:05:52.795Z,28.33
2023-12-08T11:08:20.303Z,26.00
2023-12-08T11:10:47.783Z,26.67
2023-12-08T11:13:14.351Z,25.50
2023-12-08T11:15:40.936Z,29.00
2023-12-08T11:18:08.566Z,29.33
2023-12-08T11:20:35.147Z,23.50
2023-12-08T11:23:02.623Z,27.33
2023-12-08T11:25:29.163Z,28.00
2023-12-08T11:27:56.647Z,27.00
2023-12-08T11:30:23.255Z,27.00
2023-12-08T11:32:49.927Z,28.00
2023-12-08T11:35:17.470Z,27.00
2023-12-08T11:37:44.135Z,34.00
2023-12-08T11:40:11.626Z,26.67
2023-12-08T11:42:38.196Z,28.00
2023-12-08T11:45:05.665Z,24.00
2023-12-08T11:47:33.180Z,30.00
2023-12-08T11:50:00.744Z,29.33
2023-12-08T11:52:28.302Z,27.67
2023-12-08T11:55:06.118Z,26.33
2023-12-08T11:57:36.171Z,24.67
2023-12-08T12:00:03.014Z,27.50
2023-12-08T12:02:29.626Z,32.50
2023-12-08T12:04:56.231Z,31.00
2023-12-08T12:07:23.693Z,22.33
2023-12-08T12:09:50.377Z,28.50
2023-12-08T12:12:17.001Z,30.00
2023-12-08T12:14:45.002Z,24.00
2023-12-08T12:17:11.772Z,28.00
2023-12-08T12:19:38.484Z,23.00
2023-12-08T12:22:06.007Z,28.00
2023-12-08T12:24:33.515Z,25.67
2023-12-08T12:27:01.068Z,26.67
2023-12-08T12:29:27.681Z,28.50
2023-12-08T12:31:55.183Z,25.67
2023-12-08T12:34:22.843Z,25.67
2023-12-08T12:36:50.354Z,18.33
2023-12-08T12:39:17.906Z,26.67
2023-12-08T12:41:45.528Z,30.00
2023-12-08T12:44:12.251Z,26.50
2023-12-08T12:46:39.738Z,25.67
2023-12-08T12:49:06.435Z,23.00
2023-12-08T12:51:33.998Z,24.33
2023-12-08T12:54:00.589Z,32.50
2023-12-08T12:56:28.098Z,23.00
2023-12-08T12:58:55.710Z,29.33
2023-12-08T13:01:23.202Z,22.00
2023-12-08T13:03:49.843Z,31.00
2023-12-08T13:06:16.515Z,30.50
2023-12-08T13:08:43.527Z,26.50
2023-12-08T13:11:10.997Z,30.00
2023-12-08T13:13:37.584Z,29.50
2023-12-08T13:16:04.175Z,30.00
2023-12-08T13:18:31.906Z,35.67
2023-12-08T13:20:58.512Z,28.50
2023-12-08T13:23:26.114Z,31.33
2023-12-08T13:25:52.755Z,26.50
2023-12-08T13:28:20.302Z,29.33
2023-12-08T13:30:47.764Z,28.00
2023-12-08T13:33:14.392Z,25.50
2023-12-08T13:35:41.034Z,28.50
2023-12-08T13:38:07.593Z,27.00
2023-12-08T13:40:34.129Z,28.50
2023-12-08T13:43:02.000Z,29.33
2023-12-08T13:45:28.775Z,29.00
2023-12-08T13:47:56.499Z,30.67
2023-12-08T13:50:24.034Z,28.33
2023-12-08T13:52:51.544Z,28.33
2023-12-08T13:55:19.041Z,33.50
2023-12-08T13:57:45.593Z,28.50
2023-12-08T14:00:13.127Z,27.00
2023-12-08T14:02:40.658Z,23.33
2023-12-08T14:05:07.282Z,30.50
2023-12-08T14:07:33.935Z,29.50
2023-12-08T14:10:01.367Z,21.00
2023-12-08T14:12:28.900Z,28.67
2023-12-08T14:14:56.507Z,29.00
2023-12-08T14:17:24.056Z,32.67
2023-12-08T14:19:50.697Z,32.00
2023-12-08T14:22:17.411Z,26.00
2023-12-08T14:24:44.893Z,27.00
2023-12-08T14:27:11.484Z,29.00
2023-12-08T14:29:38.950Z,28.33
2023-12-08T14:32:06.525Z,29.33
2023-12-08T14:34:33.240Z,31.50
2023-12-08T14:37:00.880Z,28.33
2023-12-08T14:39:29.434Z,23.00
2023-12-08T14:41:56.229Z,27.50
2023-12-08T14:44:23.744Z,26.33
2023-12-08T14:46:50.522Z,24.00
2023-12-08T14:49:17.173Z,29.00
2023-12-08T14:51:43.786Z,27.00
2023-12-08T14:54:10.452Z,24.00
2023-12-08T14:56:37.998Z,30.33
2023-12-08T14:59:04.514Z,25.00
2023-12-08T15:01:31.074Z,31.00
2023-12-08T15:03:58.659Z,28.00
2023-12-08T15:06:26.273Z,25.67
2023-12-08T15:08:52.855Z,29.50
2023-12-08T15:11:19.495Z,23.50
2023-12-08T15:13:47.053Z,27.00
2023-12-08T15:16:14.558Z,29.50
2023-12-08T15:18:42.099Z,28.00
2023-12-08T15:21:08.968Z,31.00
2023-12-08T15:23:36.477Z,25.00
2023-12-08T15:26:03.069Z,26.00
2023-12-08T15:28:30.567Z,25.33
2023-12-08T15:30:58.166Z,28.67
2023-12-08T15:33:24.897Z,29.00
2023-12-08T15:35:52.951Z,29.00
2023-12-08T15:38:20.405Z,28.00
2023-12-08T15:40:47.795Z,20.33
2023-12-08T15:43:14.438Z,26.00
2023-12-08T15:45:42.004Z,24.33
2023-12-08T15:48:08.734Z,29.00
2023-12-08T15:50:35.326Z,31.50
2023-12-08T15:53:01.912Z,31.00
2023-12-08T15:55:28.513Z,33.00
2023-12-08T15:57:55.054Z,45.50
2023-12-08T16:00:21.887Z,56.00
2023-12-08T16:02:48.601Z,42.00
2023-12-08T16:05:16.185Z,38.50
2023-12-08T16:07:43.328Z,55.00
2023-12-08T16:10:09.896Z,48.00
2023-12-08T16:12:36.611Z,48.00
2023-12-08T16:15:03.682Z,38.50
2023-12-08T16:17:31.263Z,50.67
2023-12-08T16:19:57.867Z,60.50
2023-12-08T16:22:24.609Z,55.50
2023-12-08T16:24:52.216Z,44.33
2023-12-08T16:27:18.833Z,42.00
2023-12-08T16:29:45.793Z,40.00
2023-12-08T16:32:12.545Z,38.50
2023-12-08T16:34:39.234Z,48.00
2023-12-08T16:37:05.926Z,36.50
2023-12-08T16:39:33.718Z,39.67
2023-12-08T16:42:00.407Z,39.50
2023-12-08T16:44:27.970Z,44.50
2023-12-08T16:46:54.521Z,38.00
2023-12-08T16:49:21.425Z,41.00
2023-12-08T16:51:49.089Z,37.33
2023-12-08T16:54:16.621Z,38.50
2023-12-08T16:56:44.320Z,58.00
2023-12-08T16:59:10.961Z,51.50
2023-12-08T17:01:37.581Z,47.50
2023-12-08T17:04:05.125Z,45.33
2023-12-08T17:06:31.894Z,48.00
2023-12-08T17:08:58.612Z,36.00
2023-12-08T17:11:26.160Z,62.00
2023-12-08T17:13:52.758Z,59.00
2023-12-08T17:16:19.329Z,57.00
2023-12-08T17:18:46.945Z,50.67
2023-12-08T17:21:14.487Z,47.20
2023-12-08T17:26:33.019Z,38.50
2023-12-08T17:29:06.719Z,15.33
2023-12-08T17:31:33.256Z,38.00
2023-12-08T17:34:08.759Z,33.50
2023-12-08T17:36:43.446Z,30.00
2023-12-08T17:39:10.005Z,31.50
2023-12-08T17:41:38.092Z,48.00
2023-12-08T17:44:04.675Z,40.00
2023-12-08T17:46:31.281Z,36.00
2023-12-08T17:48:57.910Z,38.50
2023-12-08T17:51:25.453Z,39.00
2023-12-08T17:56:36.154Z,33.50
2023-12-08T17:59:02.684Z,33.00
2023-12-08T18:01:29.348Z,54.00
2023-12-08T18:03:56.111Z,58.00
2023-12-08T18:06:22.916Z,43.50
2023-12-08T18:11:34.610Z,41.00
2023-12-08T18:14:02.117Z,31.33
2023-12-08T18:16:28.674Z,35.50
2023-12-08T18:18:55.370Z,40.00
2023-12-08T18:21:22.057Z,38.50
2023-12-08T18:26:33.633Z,35.00
2023-12-08T18:29:08.813Z,35.50
2023-12-08T18:31:36.642Z,38.00
2023-12-08T18:34:04.282Z,30.00
2023-12-08T18:36:30.933Z,35.50
2023-12-08T18:41:41.769Z,35.00
2023-12-08T18:44:08.331Z,31.00
2023-12-08T18:46:34.968Z,33.00
2023-12-08T18:49:01.672Z,33.50
2023-12-08T18:51:29.560Z,34.33
2023-12-08T18:56:41.523Z,33.00
2023-12-08T18:59:08.080Z,30.50
2023-12-08T19:01:35.564Z,31.50
2023-12-08T19:04:03.075Z,30.33
2023-12-08T19:06:29.704Z,29.50
2023-12-08T19:11:41.298Z,28.50
2023-12-08T19:14:07.892Z,36.00
2023-12-08T19:16:35.395Z,30.67
2023-12-08T19:19:02.970Z,33.00
2023-12-08T19:21:30.568Z,27.00
2023-12-08T19:26:43.029Z,32.00
2023-12-08T19:29:10.506Z,37.67
2023-12-08T19:31:37.065Z,36.00
2023-12-08T19:34:03.821Z,36.50
2023-12-08T19:36:30.504Z,28.00
2023-12-08T19:41:52.755Z,30.50
2023-12-08T19:44:20.267Z,33.00
2023-12-08T19:46:47.796Z,28.00
2023-12-08T19:49:15.340Z,34.40
2023-12-08T19:51:42.844Z,27.00
2023-12-08T19:56:53.686Z,29.00
2023-12-08T19:59:20.615Z,31.00
2023-12-08T20:01:47.766Z,29.50
2023-12-08T20:04:15.319Z,26.00
2023-12-08T20:06:42.904Z,32.33
2023-12-08T20:12:04.383Z,26.00
2023-12-08T20:14:30.950Z,28.00
2023-12-08T20:16:58.436Z,26.33
2023-12-08T20:19:25.109Z,26.00
2023-12-08T20:21:52.671Z,27.00
2023-12-08T20:27:05.304Z,27.33
2023-12-08T20:29:32.818Z,27.67
2023-12-08T20:31:59.363Z,24.50
2023-12-08T20:34:26.843Z,26.00
2023-12-08T20:36:53.415Z,24.00
2023-12-08T20:42:14.908Z,29.00
2023-12-08T20:44:42.591Z,26.00
2023-12-08T20:47:10.106Z,32.00
2023-12-08T20:49:37.797Z,27.33
2023-12-08T20:52:05.355Z,27.00
2023-12-08T20:57:17.004Z,32.40
2023-12-08T20:59:43.542Z,33.00
2023-12-08T21:02:11.011Z,26.00
2023-12-08T21:04:37.517Z,26.50
2023-12-08T21:07:04.625Z,44.00
2023-12-08T21:09:32.520Z,49.33
2023-12-08T21:11:59.179Z,44.50
2023-12-08T21:14:25.724Z,40.00
2023-12-08T21:16:53.182Z,39.00
2023-12-08T21:19:23.381Z,38.00
2023-12-08T21:21:51.330Z,41.33
2023-12-08T21:24:18.925Z,48.67
2023-12-08T21:26:45.576Z,44.50
2023-12-08T21:29:13.040Z,36.00
2023-12-08T21:31:39.566Z,38.00
2023-12-08T21:34:07.170Z,39.33
2023-12-08T21:36:34.376Z,41.00
2023-12-08T21:39:02.002Z,39.33
2023-12-08T21:41:28.569Z,43.00
2023-12-08T21:43:57.216Z,40.33
2023-12-08T21:46:24.773Z,36.33
2023-12-08T21:48:51.428Z,38.00
2023-12-08T21:51:18.995Z,34.00
2023-12-08T21:53:45.537Z,35.50
2023-12-08T21:56:13.010Z,36.50
2023-12-08T21:58:55.387Z,35.00
2023-12-08T22:01:21.949Z,38.50
2023-12-08T22:03:48.621Z,35.00
2023-12-08T22:06:16.210Z,34.50
2023-12-08T22:08:42.760Z,32.00
2023-12-08T22:11:10.223Z,38.00
2023-12-08T22:13:37.679Z,36.67
2023-12-08T22:16:04.323Z,40.00
2023-12-08T22:18:31.030Z,36.50
2023-12-08T22:20:57.704Z,32.00
2023-12-08T22:23:24.270Z,33.50
2023-12-08T22:25:50.835Z,34.00
2023-12-08T22:28:18.301Z,30.00
2023-12-08T22:30:45.790Z,28.33
2023-12-08T22:33:13.390Z,31.00
2023-12-08T22:35:39.999Z,33.00
2023-12-08T22:38:06.539Z,44.00
2023-12-08T22:40:33.078Z,35.50
2023-12-08T22:45:44.490Z,34.00
2023-12-08T22:48:12.056Z,36.00
2023-12-08T22:50:47.003Z,34.00
2023-12-08T22:53:16.849Z,49.50
2023-12-08T22:55:43.573Z,45.50
2023-12-08T23:01:04.431Z,36.00
2023-12-08T23:03:32.044Z,34.00
2023-12-08T23:06:01.017Z,30.00
2023-12-08T23:08:27.761Z,32.50
2023-12-08T23:10:55.235Z,31.00
2023-12-08T23:16:06.580Z,27.00
2023-12-08T23:18:33.295Z,21.00
2023-12-08T23:21:00.858Z,27.67
2023-12-08T23:23:27.382Z,21.50
2023-12-08T23:25:54.004Z,26.50
2023-12-08T23:31:15.641Z,16.00
2023-12-08T23:33:42.221Z,22.00
2023-12-08T23:36:09.087Z,21.00
2023-12-08T23:38:36.627Z,19.00
2023-12-08T23:41:04.102Z,20.00
2023-12-08T23:46:14.580Z,20.00
2023-12-08T23:48:43.176Z,19.80
2023-12-08T23:51:10.663Z,24.33
2023-12-08T23:53:37.190Z,19.00
2023-12-08T23:56:03.775Z,15.50
